createdAt,value
2018-12-06T00:03:30.795Z,98302.92
2018-12-06T00:08:33.985Z,98305.52
2018-12-06T00:13:37.145Z,98316.95
2018-12-06T00:18:40.357Z,98320.88
2018-12-06T00:23:43.513Z,98335.14
2018-12-06T00:28:46.692Z,98341.99
2018-12-06T00:33:49.813Z,98346.36
2018-12-06T00:38:52.982Z,98350.16
2018-12-06T00:43:56.208Z,98349.68
2018-12-06T00:48:59.364Z,98344.66
2018-12-06T00:54:02.654Z,98339.84
2018-12-06T00:59:06.507Z,98334.12
2018-12-06T01:04:09.619Z,98326.35
2018-12-06T01:09:12.784Z,98329.20
2018-12-06T01:14:16.004Z,98318.69
2018-12-06T01:19:19.180Z,98296.00
2018-12-06T01:24:22.281Z,98273.90
2018-12-06T01:29:25.382Z,98273.02
2018-12-06T01:34:28.502Z,98264.77
2018-12-06T01:39:34.480Z,98238.00
2018-12-06T01:44:37.611Z,98207.95
2018-12-06T01:49:40.745Z,98185.13
2018-12-06T01:54:43.930Z,98195.55
2018-12-06T01:59:47.058Z,98188.44
2018-12-06T02:04:50.149Z,98167.39
2018-12-06T02:09:53.233Z,98167.39
2018-12-06T02:14:56.349Z,98176.02
2018-12-06T02:19:59.465Z,98185.48
2018-12-06T02:25:02.770Z,98192.59
2018-12-06T02:30:06.175Z,98185.22
2018-12-06T02:40:18.253Z,98210.61
2018-12-06T02:45:21.344Z,98230.77
2018-12-06T02:50:24.809Z,98233.78
2018-12-06T02:55:27.941Z,98242.27
2018-12-06T03:00:31.067Z,98260.25
2018-12-06T03:05:34.217Z,98265.72
2018-12-06T03:10:37.389Z,98274.86
2018-12-06T03:15:40.525Z,98250.95
2018-12-06T03:20:43.643Z,98231.32
2018-12-06T03:25:46.811Z,98241.91
2018-12-06T03:30:49.919Z,98238.85
2018-12-06T03:35:53.088Z,98244.31
2018-12-06T03:40:57.364Z,98264.72
2018-12-06T03:46:00.565Z,98262.06
2018-12-06T03:51:03.774Z,98260.74
2018-12-06T03:56:06.910Z,98246.77
2018-12-06T04:01:10.025Z,98236.28
2018-12-06T04:06:13.133Z,98239.45
2018-12-06T04:11:16.232Z,98222.96
2018-12-06T04:16:19.347Z,98224.47
2018-12-06T04:21:22.494Z,98222.90
2018-12-06T04:26:25.748Z,98224.57
2018-12-06T04:31:28.837Z,98230.04
2018-12-06T04:36:31.997Z,98228.67
2018-12-06T04:41:35.240Z,98207.17
2018-12-06T04:46:38.369Z,98205.04
2018-12-06T04:51:41.597Z,98210.89
2018-12-06T04:56:44.702Z,98207.34
2018-12-06T05:01:47.849Z,98225.60
2018-12-06T05:06:50.982Z,98221.70
2018-12-06T05:11:54.146Z,98226.55
2018-12-06T05:16:57.608Z,98235.03
2018-12-06T05:22:00.744Z,98229.31
2018-12-06T05:27:04.186Z,98226.54
2018-12-06T05:32:07.465Z,98219.02
2018-12-06T05:37:10.626Z,98217.98
2018-12-06T05:42:13.793Z,98212.55
2018-12-06T05:47:16.928Z,98224.25
2018-12-06T05:52:20.091Z,98237.83
2018-12-06T05:57:23.228Z,98225.13
2018-12-06T06:02:26.406Z,98232.56
2018-12-06T06:07:29.538Z,98230.04
2018-12-06T06:12:33.178Z,98224.66
2018-12-06T06:17:36.468Z,98232.95
2018-12-06T06:22:39.598Z,98235.36
2018-12-06T06:27:42.730Z,98235.88
2018-12-06T06:32:45.868Z,98251.34
2018-12-06T06:37:49.021Z,98259.70
2018-12-06T06:42:52.117Z,98255.87
2018-12-06T06:47:55.225Z,98274.38
2018-12-06T06:52:58.333Z,98278.42
2018-12-06T06:58:01.487Z,98288.28
2018-12-06T07:03:04.736Z,98289.30
2018-12-06T07:08:07.908Z,98291.69
2018-12-06T07:13:11.036Z,98305.27
2018-12-06T07:18:14.168Z,98315.08
2018-12-06T07:23:17.309Z,98326.35
2018-12-06T07:28:21.056Z,98332.45
2018-12-06T07:33:24.197Z,98347.64
2018-12-06T07:38:27.447Z,98359.36
2018-12-06T07:43:31.089Z,98372.89
2018-12-06T07:48:34.881Z,98375.31
2018-12-06T07:53:37.998Z,98389.78
2018-12-06T07:58:41.122Z,98395.60
2018-12-06T08:03:44.221Z,98397.39
2018-12-06T08:08:47.372Z,98398.42
2018-12-06T08:13:50.505Z,98400.18
2018-12-06T08:18:53.652Z,98403.06
2018-12-06T08:23:56.844Z,98418.59
2018-12-06T08:28:59.995Z,98418.55
2018-12-06T08:34:06.311Z,98414.23
2018-12-06T08:39:08.402Z,98416.48
2018-12-06T08:44:11.568Z,98419.39
2018-12-06T08:49:14.706Z,98434.11
2018-12-06T08:54:17.842Z,98432.05
2018-12-06T08:59:21.027Z,98441.17
2018-12-06T09:04:24.246Z,98439.09
2018-12-06T09:09:27.410Z,98437.56
2018-12-06T09:14:30.748Z,98441.62
2018-12-06T09:19:33.896Z,98442.33
2018-12-06T09:24:37.015Z,98441.11
2018-12-06T09:29:40.189Z,98433.80
2018-12-06T09:34:43.365Z,98436.52
2018-12-06T09:40:00.860Z,98445.38
2018-12-06T09:45:04.928Z,98452.98
2018-12-06T09:50:08.554Z,98453.80
2018-12-06T09:55:11.822Z,98454.36
2018-12-06T10:00:16.829Z,98468.56
2018-12-06T10:05:19.953Z,98476.92
2018-12-06T10:10:23.100Z,98468.75
2018-12-06T10:15:27.310Z,98466.00
2018-12-06T10:20:31.180Z,98463.34
2018-12-06T10:25:34.419Z,98461.03
2018-12-06T10:30:38.235Z,98451.97
2018-12-06T10:35:41.441Z,98438.86
2018-12-06T10:40:45.608Z,98427.01
2018-12-06T10:45:48.965Z,98418.30
2018-12-06T10:56:16.039Z,98415.95
2018-12-06T11:01:21.270Z,98423.91
2018-12-06T11:06:24.417Z,98417.61
2018-12-06T11:11:27.598Z,98420.59
2018-12-06T11:16:30.877Z,98424.36
2018-12-06T11:21:34.167Z,98421.13
2018-12-06T11:26:37.309Z,98415.75
2018-12-06T11:31:41.493Z,98425.79
2018-12-06T11:36:44.936Z,98440.00
2018-12-06T11:41:48.229Z,98440.52
2018-12-06T11:46:51.422Z,98453.09
2018-12-06T11:51:54.594Z,98458.12
2018-12-06T11:56:57.785Z,98449.58
2018-12-06T12:02:01.049Z,98448.70
2018-12-06T12:07:04.238Z,98454.59
2018-12-06T12:12:07.434Z,98461.83
2018-12-06T12:17:10.695Z,98452.09
2018-12-06T12:22:13.890Z,98450.74
2018-12-06T12:27:17.157Z,98455.54
2018-12-06T12:32:20.350Z,98449.08
2018-12-06T12:37:23.570Z,98451.55
2018-12-06T12:42:26.781Z,98452.76
2018-12-06T12:47:30.006Z,98457.35
2018-12-06T12:52:33.183Z,98458.83
2018-12-06T12:57:36.353Z,98448.53
2018-12-06T13:02:39.536Z,98448.05
2018-12-06T13:07:42.825Z,98449.56
2018-12-06T13:12:45.952Z,98449.64
2018-12-06T13:17:49.118Z,98453.71
2018-12-06T13:22:52.286Z,98444.05
2018-12-06T13:27:55.429Z,98434.33
2018-12-06T13:32:58.620Z,98432.84
2018-12-06T13:38:01.830Z,98434.33
2018-12-06T13:43:05.269Z,98423.20
2018-12-06T13:48:08.471Z,98427.44
2018-12-06T13:53:11.633Z,98425.77
2018-12-06T13:58:15.028Z,98435.42
2018-12-06T14:03:18.347Z,98442.21
2018-12-06T14:08:21.559Z,98448.32
2018-12-06T14:13:24.769Z,98460.31
2018-12-06T14:18:27.982Z,98443.00
2018-12-06T14:23:31.162Z,98439.65
2018-12-06T14:28:34.341Z,98432.75
2018-12-06T14:33:37.629Z,98431.29
2018-12-06T14:38:40.802Z,98425.30
2018-12-06T14:48:59.743Z,98435.69
2018-12-06T14:54:03.090Z,98444.25
2018-12-06T14:59:06.333Z,98458.52
2018-12-06T15:04:09.545Z,98455.32
2018-12-06T15:09:12.828Z,98467.41
2018-12-06T15:14:16.171Z,98484.09
2018-12-06T15:19:19.372Z,98489.83
2018-12-06T15:24:22.577Z,98486.59
2018-12-06T15:29:25.845Z,98485.34
2018-12-06T15:34:29.128Z,98495.48
2018-12-06T15:39:32.422Z,98489.64
2018-12-06T15:44:35.706Z,98499.92
2018-12-06T15:49:38.962Z,98503.09
2018-12-06T15:54:42.157Z,98503.06
2018-12-06T15:59:45.405Z,98497.20
2018-12-06T16:04:48.589Z,98511.09
2018-12-06T16:09:51.829Z,98520.40
2018-12-06T16:14:55.062Z,98527.11
2018-12-06T16:19:58.217Z,98525.22
2018-12-06T16:25:01.439Z,98521.97
2018-12-06T16:30:06.981Z,98521.30
2018-12-06T16:35:10.339Z,98512.38
2018-12-06T16:40:13.701Z,98510.97
2018-12-06T16:45:16.939Z,98518.02
2018-12-06T16:50:20.271Z,98523.64
2018-12-06T16:55:23.518Z,98531.91
2018-12-06T17:00:26.765Z,98538.38
2018-12-06T17:10:45.947Z,98524.92
2018-12-06T17:15:49.216Z,98523.05
2018-12-06T17:20:52.490Z,98517.81
2018-12-06T17:25:55.809Z,98525.43
2018-12-06T17:30:59.063Z,98528.03
2018-12-06T17:36:02.303Z,98539.25
2018-12-06T17:41:05.864Z,98544.97
2018-12-06T17:46:09.216Z,98549.67
2018-12-06T17:51:12.713Z,98561.64
2018-12-06T17:56:16.028Z,98564.59
2018-12-06T18:01:19.602Z,98560.19
2018-12-06T18:06:22.881Z,98563.66
2018-12-06T18:11:26.175Z,98553.06
2018-12-06T18:16:29.478Z,98559.97
2018-12-06T18:21:32.741Z,98556.00
2018-12-06T18:26:36.048Z,98549.89
2018-12-06T18:31:39.319Z,98555.21
2018-12-06T18:36:42.575Z,98557.38
2018-12-06T18:41:45.809Z,98556.62
2018-12-06T18:46:49.066Z,98567.80
2018-12-06T18:51:52.315Z,98572.59
2018-12-06T18:56:56.207Z,98573.34
2018-12-06T19:01:59.692Z,98581.30
2018-12-06T19:07:03.049Z,98576.02
2018-12-06T19:12:06.557Z,98568.14
2018-12-06T19:17:09.856Z,98555.22
2018-12-06T19:22:13.046Z,98548.17
2018-12-06T19:27:16.282Z,98545.58
2018-12-06T19:32:19.550Z,98535.46
2018-12-06T19:37:23.083Z,98533.30
2018-12-06T19:42:26.787Z,98521.95
2018-12-06T19:47:30.319Z,98525.59
2018-12-06T19:52:34.018Z,98523.05
2018-12-06T19:57:37.293Z,98522.66
2018-12-06T20:02:40.549Z,98518.95
2018-12-06T20:07:43.878Z,98523.20
2018-12-06T20:12:47.565Z,98514.94
2018-12-06T20:17:51.275Z,98513.05
2018-12-06T20:22:55.815Z,98515.05
2018-12-06T20:27:59.126Z,98519.05
2018-12-06T20:33:03.662Z,98514.61
2018-12-06T20:38:06.990Z,98516.06
2018-12-06T20:43:10.332Z,98504.80
2018-12-06T20:48:13.592Z,98514.95
2018-12-06T20:53:16.943Z,98507.34
2018-12-06T20:58:20.220Z,98514.08
2018-12-06T21:03:23.574Z,98514.32
2018-12-06T21:08:27.124Z,98510.13
2018-12-06T21:13:30.415Z,98506.20
2018-12-06T21:18:33.749Z,98495.50
2018-12-06T21:23:37.060Z,98492.03
2018-12-06T21:28:40.352Z,98482.80
2018-12-06T21:33:43.575Z,98483.59
2018-12-06T21:38:46.837Z,98475.56
2018-12-06T21:43:50.101Z,98481.75
2018-12-06T21:48:53.397Z,98480.95
2018-12-06T21:53:56.941Z,98481.28
2018-12-06T21:59:00.321Z,98481.79
2018-12-06T22:04:03.874Z,98476.89
2018-12-06T22:09:07.883Z,98473.81
2018-12-06T22:14:11.205Z,98471.00
2018-12-06T22:19:14.452Z,98464.41
2018-12-06T22:24:17.833Z,98463.53
2018-12-06T22:29:21.676Z,98465.97
2018-12-06T22:34:24.892Z,98470.88
2018-12-06T22:39:28.169Z,98469.11
2018-12-06T22:44:31.509Z,98468.11
2018-12-06T22:49:34.670Z,98470.78
2018-12-06T22:54:37.992Z,98465.35
2018-12-06T22:59:41.197Z,98473.22
2018-12-06T23:04:44.333Z,98471.40
2018-12-06T23:09:48.194Z,98459.36
2018-12-06T23:14:51.345Z,98456.72
2018-12-06T23:19:54.606Z,98454.97
2018-12-06T23:24:57.976Z,98451.05
2018-12-06T23:30:01.118Z,98451.34
2018-12-06T23:35:04.684Z,98436.80
2018-12-06T23:40:07.857Z,98427.47
2018-12-06T23:45:11.013Z,98419.41
2018-12-06T23:50:14.618Z,98414.30
2018-12-06T23:55:17.769Z,98423.51
